Time,TemperatureF,DewpointF,PressureIn,WindDirection,WindDirectionDegrees,WindSpeedMPH,WindSpeedGustMPH,Humidity,HourlyPrecipIn,Conditions,Clouds,dailyrainin,SoftwareType,DateUTC
2013-07-04 00:00:00,69.3,69.3,28.68,South,180,0.0,0.0,100,0.22,CLR,CLR,1.10,WeatherDisplay:10.37,2013-07-04 04:00:00,
2013-07-04 00:01:00,69.3,69.3,28.67,South,180,1.0,1.0,100,0.22,CLR,CLR,0.00,WeatherDisplay:10.37,2013-07-04 04:01:00,
2013-07-04 00:02:00,69.3,69.3,28.67,South,180,2.3,2.3,100,0.22,CLR,CLR,0.00,WeatherDisplay:10.37,2013-07-04 04:02:00,
2013-07-04 00:04:00,69.4,69.4,28.67,South,180,2.3,2.3,100,0.22,CLR,CLR,0.00,WeatherDisplay:10.37,2013-07-04 04:04:00,
2013-07-04 00:09:00,69.5,69.5,28.67,South,180,2.0,2.0,100,0.07,CLR,CLR,0.00,WeatherDisplay:10.37,2013-07-04 04:09:00,
2013-07-04 00:14:00,69.6,69.6,28.67,South,181,0.0,0.0,100,0.00,CLR,CLR,0.00,WeatherDisplay:10.37,2013-07-04 04:14:00,
2013-07-04 00:19:00,69.6,69.6,28.67,South,181,0.0,0.0,100,0.00,CLR,CLR,0.00,WeatherDisplay:10.37,2013-07-04 04:19:00,
2013-07-04 00:25:00,69.6,69.6,28.67,South,181,0.0,0.0,100,0.00,CLR,CLR,0.00,WeatherDisplay:10.37,2013-07-04 04:25:00,
2013-07-04 00:30:00,69.6,69.6,28.68,South,181,0.0,0.0,100,0.00,CLR,CLR,0.00,WeatherDisplay:10.37,2013-07-04 04:30:00,
2013-07-04 00:35:00,69.6,69.6,28.67,South,181,0.0,0.0,100,0.00,CLR,CLR,0.00,WeatherDisplay:10.37,2013-07-04 04:35:00,
2013-07-04 00:40:00,69.6,69.6,28.68,South,181,2.3,0.0,100,0.00,CLR,CLR,0.00,WeatherDisplay:10.37,2013-07-04 04:40:00,
2013-07-04 00:45:00,69.7,69.7,28.67,South,181,0.0,0.0,100,0.00,CLR,CLR,0.00,WeatherDisplay:10.37,2013-07-04 04:45:00,
2013-07-04 00:50:00,69.7,69.7,28.68,South,181,0.0,0.0,100,0.00,CLR,CLR,0.00,WeatherDisplay:10.37,2013-07-04 04:50:00,
2013-07-04 00:56:00,69.7,69.7,28.68,South,181,0.0,0.0,100,0.00,CLR,CLR,0.00,WeatherDisplay:10.37,2013-07-04 04:56:00,
2013-07-04 01:01:00,69.6,69.6,28.67,South,182,0.0,0.0,100,0.00,CLR,CLR,0.00,WeatherDisplay:10.37,2013-07-04 05:01:00,
2013-07-04 01:06:00,69.7,69.7,28.68,South,181,0.0,0.0,100,0.00,CLR,CLR,0.00,WeatherDisplay:10.37,2013-07-04 05:06:00,
2013-07-04 01:11:00,69.7,69.7,28.68,South,181,0.0,0.0,100,0.00,CLR,CLR,0.00,WeatherDisplay:10.37,2013-07-04 05:11:00,
2013-07-04 01:16:00,69.8,69.8,28.68,West,281,3.5,3.5,100,0.00,CLR,CLR,0.00,WeatherDisplay:10.37,2013-07-04 05:16:00,
2013-07-04 01:22:00,70.0,70.0,28.68,West,281,0.0,0.0,100,0.00,CLR,CLR,0.00,WeatherDisplay:10.37,2013-07-04 05:22:00,
2013-07-04 01:27:00,70.1,70.1,28.68,West,281,0.0,0.0,100,0.00,CLR,CLR,0.00,WeatherDisplay:10.37,2013-07-04 05:27:00,
2013-07-04 01:32:00,70.2,70.2,28.68,West,279,0.0,0.0,100,0.00,CLR,CLR,0.00,WeatherDisplay:10.37,2013-07-04 05:32:00,
2013-07-04 01:37:00,70.2,70.2,28.68,West,279,2.3,2.3,100,0.00,CLR,CLR,0.00,WeatherDisplay:10.37,2013-07-04 05:37:00,
2013-07-04 01:42:00,70.2,70.2,28.68,West,279,2.3,2.3,100,0.00,CLR,CLR,0.00,WeatherDisplay:10.37,2013-07-04 05:42:00,
2013-07-04 01:48:00,70.2,70.2,28.68,West,279,2.3,2.3,100,0.00,CLR,CLR,0.00,WeatherDisplay:10.37,2013-07-04 05:48:00,
2013-07-04 01:53:00,70.2,70.2,28.68,West,279,1.2,1.2,100,0.00,CLR,CLR,0.00,WeatherDisplay:10.37,2013-07-04 05:53:00,
2013-07-04 01:58:00,70.2,70.2,28.68,West,279,0.0,0.0,100,0.00,CLR,CLR,0.00,WeatherDisplay:10.37,2013-07-04 05:58:00,
2013-07-04 02:03:00,70.2,70.2,28.68,West,279,2.0,2.0,100,0.00,CLR,CLR,0.00,WeatherDisplay:10.37,2013-07-04 06:03:00,
2013-07-04 02:08:00,70.3,70.3,28.68,West,272,3.5,3.5,100,0.00,CLR,CLR,0.00,WeatherDisplay:10.37,2013-07-04 06:08:00,
2013-07-04 02:14:00,70.3,70.3,28.68,SSE,161,1.2,1.2,100,0.00,CLR,CLR,0.00,WeatherDisplay:10.37,2013-07-04 06:14:00,
2013-07-04 02:19:00,70.3,70.3,28.68,SSE,161,1.2,0.0,100,0.00,CLR,CLR,0.00,WeatherDisplay:10.37,2013-07-04 06:19:00,
2013-07-04 02:24:00,70.2,70.2,28.68,SSE,161,1.2,0.0,100,0.00,CLR,CLR,0.00,WeatherDisplay:10.37,2013-07-04 06:24:00,
2013-07-04 02:29:00,70.2,70.2,28.67,SSE,161,0.0,0.0,100,0.00,CLR,CLR,0.00,WeatherDisplay:10.37,2013-07-04 06:29:00,
2013-07-04 02:34:00,70.2,70.2,28.68,SSE,161,0.0,0.0,100,0.00,CLR,CLR,0.00,WeatherDisplay:10.37,2013-07-04 06:34:00,
2013-07-04 02:39:00,70.2,70.2,28.67,SSE,161,0.0,0.0,100,0.00,CLR,CLR,0.00,WeatherDisplay:10.37,2013-07-04 06:39:00,
2013-07-04 02:45:00,70.2,70.2,28.67,SSE,161,0.0,0.0,100,0.00,CLR,CLR,0.00,WeatherDisplay:10.37,2013-07-04 06:45:00,
2013-07-04 02:50:00,70.2,70.2,28.67,SSE,161,0.0,0.0,100,0.00,CLR,CLR,0.00,WeatherDisplay:10.37,2013-07-04 06:50:00,
2013-07-04 02:55:00,70.3,70.3,28.67,SSE,161,0.0,0.0,100,0.00,CLR,CLR,0.01,WeatherDisplay:10.37,2013-07-04 06:55:00,
2013-07-04 03:00:00,70.3,70.3,28.67,SSE,161,0.0,0.0,100,0.01,RA,RA,0.01,WeatherDisplay:10.37,2013-07-04 07:00:00,
2013-07-04 03:06:00,70.3,70.3,28.66,SSE,161,0.0,0.0,100,0.01,,,0.01,WeatherDisplay:10.37,2013-07-04 07:06:00,
2013-07-04 03:11:00,70.3,70.3,28.66,SSE,161,0.0,0.0,100,0.01,CLR,CLR,0.01,WeatherDisplay:10.37,2013-07-04 07:11:00,
2013-07-04 03:16:00,70.4,70.4,28.66,SSE,161,2.3,2.3,100,0.01,CLR,CLR,0.01,WeatherDisplay:10.37,2013-07-04 07:16:00,
2013-07-04 03:21:00,70.4,70.4,28.66,East,98,3.5,3.5,100,0.01,CLR,CLR,0.01,WeatherDisplay:10.37,2013-07-04 07:21:00,
2013-07-04 03:26:00,70.4,70.4,28.66,SE,144,1.2,1.2,100,0.01,CLR,CLR,0.01,WeatherDisplay:10.37,2013-07-04 07:26:00,
2013-07-04 03:32:00,70.5,70.5,28.66,SSW,193,1.2,1.2,100,0.01,CLR,CLR,0.01,WeatherDisplay:10.37,2013-07-04 07:32:00,
2013-07-04 03:37:00,70.5,70.5,28.66,SSW,193,2.3,2.3,100,0.01,CLR,CLR,0.01,WeatherDisplay:10.37,2013-07-04 07:37:00,
2013-07-04 03:42:00,70.5,70.5,28.66,SSW,193,2.3,2.3,100,0.01,CLR,CLR,0.01,WeatherDisplay:10.37,2013-07-04 07:42:00,
2013-07-04 03:47:00,70.4,70.4,28.66,SSW,193,0.0,0.0,100,0.01,CLR,CLR,0.01,WeatherDisplay:10.37,2013-07-04 07:47:00,
2013-07-04 03:52:00,70.4,70.4,28.66,SSW,193,1.2,0.0,100,0.01,CLR,CLR,0.01,WeatherDisplay:10.37,2013-07-04 07:52:00,
2013-07-04 03:57:00,70.4,70.4,28.66,SSW,193,2.3,2.3,100,0.00,CLR,CLR,0.01,WeatherDisplay:10.37,2013-07-04 07:57:00,
2013-07-04 04:03:00,70.4,70.4,28.66,SSW,193,2.3,2.3,100,0.00,CLR,CLR,0.01,WeatherDisplay:10.37,2013-07-04 08:03:00,
2013-07-04 04:08:00,70.3,70.3,28.66,SSW,193,1.2,1.2,100,0.00,CLR,CLR,0.01,WeatherDisplay:10.37,2013-07-04 08:08:00,
2013-07-04 04:13:00,70.3,70.3,28.67,SSW,193,1.2,1.2,100,0.00,CLR,CLR,0.01,WeatherDisplay:10.37,2013-07-04 08:13:00,
2013-07-04 04:18:00,70.3,70.3,28.66,SSW,193,2.3,2.3,100,0.00,CLR,CLR,0.01,WeatherDisplay:10.37,2013-07-04 08:18:00,
2013-07-04 04:24:00,70.3,70.3,28.66,SSW,193,0.0,0.0,100,0.00,CLR,CLR,0.01,WeatherDisplay:10.37,2013-07-04 08:24:00,
2013-07-04 04:29:00,70.3,70.3,28.67,SSW,193,0.0,0.0,100,0.00,CLR,CLR,0.01,WeatherDisplay:10.37,2013-07-04 08:29:00,
2013-07-04 04:34:00,70.3,70.3,28.67,SSW,193,1.2,0.0,100,0.01,RA,RA,0.02,WeatherDisplay:10.37,2013-07-04 08:34:00,
2013-07-04 04:39:00,70.3,70.3,28.66,South,185,4.0,4.0,100,0.01,RA,RA,0.02,WeatherDisplay:10.37,2013-07-04 08:39:00,
2013-07-04 04:45:00,70.3,70.3,28.66,South,186,1.2,1.2,100,0.01,,,0.02,WeatherDisplay:10.37,2013-07-04 08:45:00,
2013-07-04 04:50:00,70.3,70.3,28.66,SE,143,1.2,1.2,100,0.01,CLR,CLR,0.02,WeatherDisplay:10.37,2013-07-04 08:50:00,
2013-07-04 04:55:00,70.3,70.3,28.67,South,183,5.8,5.8,100,0.01,CLR,CLR,0.02,WeatherDisplay:10.37,2013-07-04 08:55:00,
2013-07-04 05:00:00,70.2,70.2,28.67,SSE,165,8.1,8.1,100,0.02,RA,RA,0.03,WeatherDisplay:10.37,2013-07-04 09:00:00,
2013-07-04 05:05:00,69.9,69.9,28.67,SSW,194,5.0,5.0,100,0.02,RA,RA,0.03,WeatherDisplay:10.37,2013-07-04 09:05:00,
2013-07-04 05:11:00,69.6,69.6,28.68,SSE,162,6.9,6.9,100,0.03,RA,RA,0.04,WeatherDisplay:10.37,2013-07-04 09:11:00,
2013-07-04 05:16:00,69.4,69.4,28.67,SW,218,5.8,5.8,100,0.03,RA,RA,0.04,WeatherDisplay:10.37,2013-07-04 09:16:00,
2013-07-04 05:21:00,69.2,69.2,28.67,SSE,165,3.5,3.5,100,0.03,CLR,CLR,0.04,WeatherDisplay:10.37,2013-07-04 09:21:00,
2013-07-04 05:26:00,69.1,69.1,28.68,ESE,119,3.5,3.5,100,0.03,CLR,CLR,0.04,WeatherDisplay:10.37,2013-07-04 09:26:00,
2013-07-04 05:31:00,69.1,69.1,28.68,SSE,164,6.0,6.0,100,0.03,CLR,CLR,0.04,WeatherDisplay:10.37,2013-07-04 09:31:00,
2013-07-04 05:36:00,69.0,69.0,28.67,SSW,197,2.3,2.3,100,0.02,CLR,CLR,0.04,WeatherDisplay:10.37,2013-07-04 09:36:00,
2013-07-04 05:41:00,69.0,69.0,28.68,SSW,193,5.0,5.0,100,0.05,RA,RA,0.08,WeatherDisplay:10.37,2013-07-04 09:41:00,
2013-07-04 05:46:00,69.0,69.0,28.67,SSW,196,3.5,3.5,100,0.12,RA,RA,0.14,WeatherDisplay:10.37,2013-07-04 09:46:00,
2013-07-04 05:52:00,68.9,68.9,28.68,SSW,196,4.0,4.0,100,0.14,RA,RA,0.16,WeatherDisplay:10.37,2013-07-04 09:52:00,
2013-07-04 05:53:00,68.9,68.9,28.68,SSW,196,3.5,3.5,100,0.14,RA,RA,0.17,WeatherDisplay:10.37,2013-07-04 09:53:00,
2013-07-04 05:58:00,68.9,68.9,28.68,SSW,196,2.3,2.3,100,0.16,RA,RA,0.19,WeatherDisplay:10.37,2013-07-04 09:58:00,
2013-07-04 06:03:00,68.9,68.9,28.68,SSW,196,0.0,0.0,100,0.16,RA,RA,0.19,WeatherDisplay:10.37,2013-07-04 10:03:00,
2013-07-04 06:08:00,68.9,68.9,28.68,SSW,196,0.0,0.0,100,0.15,CLR,CLR,0.19,WeatherDisplay:10.37,2013-07-04 10:08:00,
2013-07-04 06:13:00,68.9,68.9,28.68,SSW,196,0.0,0.0,100,0.16,RA,RA,0.20,WeatherDisplay:10.37,2013-07-04 10:13:00,
2013-07-04 06:18:00,68.9,68.9,28.68,SSW,196,0.0,0.0,100,0.16,RA,RA,0.20,WeatherDisplay:10.37,2013-07-04 10:18:00,
2013-07-04 06:23:00,69.0,69.0,28.68,SSW,196,0.0,0.0,100,0.16,CLR,CLR,0.20,WeatherDisplay:10.37,2013-07-04 10:23:00,
2013-07-04 06:28:00,69.0,69.0,28.68,SSW,196,0.0,0.0,100,0.16,CLR,CLR,0.20,WeatherDisplay:10.37,2013-07-04 10:28:00,
2013-07-04 06:34:00,69.0,69.0,28.68,SSW,196,1.0,1.0,100,0.16,CLR,CLR,0.20,WeatherDisplay:10.37,2013-07-04 10:34:00,
2013-07-04 06:39:00,69.0,69.0,28.69,SSW,196,0.0,0.0,100,0.15,CLR,CLR,0.20,WeatherDisplay:10.37,2013-07-04 10:39:00,
2013-07-04 06:44:00,69.0,69.0,28.69,SSW,196,3.5,3.5,100,0.10,CLR,CLR,0.20,WeatherDisplay:10.37,2013-07-04 10:44:00,
2013-07-04 06:49:00,69.1,69.1,28.69,SSW,196,2.3,2.3,100,0.07,RA,RA,0.22,WeatherDisplay:10.37,2013-07-04 10:49:00,
2013-07-04 06:54:00,69.1,69.1,28.70,SSW,196,1.2,0.0,100,0.06,RA,RA,0.23,WeatherDisplay:10.37,2013-07-04 10:54:00,
2013-07-04 06:59:00,69.1,69.1,28.70,SSW,196,3.5,3.5,100,0.04,RA,RA,0.23,WeatherDisplay:10.37,2013-07-04 10:59:00,
2013-07-04 07:04:00,69.2,69.2,28.73,SSW,196,1.2,1.2,100,0.04,CLR,CLR,0.23,WeatherDisplay:10.37,2013-07-04 11:04:00,
2013-07-04 07:10:00,69.2,69.2,28.72,SSW,196,1.2,1.2,100,0.04,CLR,CLR,0.23,WeatherDisplay:10.37,2013-07-04 11:10:00,
2013-07-04 07:15:00,69.4,69.4,28.72,SSE,152,4.6,4.6,100,0.03,CLR,CLR,0.25,WeatherDisplay:10.37,2013-07-04 11:15:00,
2013-07-04 07:20:00,69.4,69.4,28.74,South,182,5.8,5.8,100,0.06,RA,RA,0.26,WeatherDisplay:10.37,2013-07-04 11:20:00,
2013-07-04 07:25:00,69.4,69.4,28.72,South,186,5.0,5.0,100,0.06,RA,RA,0.26,WeatherDisplay:10.37,2013-07-04 11:25:00,
2013-07-04 07:30:00,69.4,69.4,28.71,South,179,3.5,3.5,100,0.06,,,0.26,WeatherDisplay:10.37,2013-07-04 11:30:00,
2013-07-04 07:36:00,69.5,69.5,28.73,SSW,205,2.3,2.3,100,0.06,CLR,CLR,0.26,WeatherDisplay:10.37,2013-07-04 11:36:00,
2013-07-04 07:41:00,69.5,69.5,28.71,SSW,205,2.3,2.3,100,0.06,CLR,CLR,0.26,WeatherDisplay:10.37,2013-07-04 11:41:00,
2013-07-04 07:46:00,69.7,69.7,28.72,SSW,205,1.0,1.0,100,0.06,CLR,CLR,0.26,WeatherDisplay:10.37,2013-07-04 11:46:00,
2013-07-04 07:51:00,69.9,69.9,28.72,SSW,205,1.2,1.2,100,0.04,CLR,CLR,0.26,WeatherDisplay:10.37,2013-07-04 11:51:00,
2013-07-04 07:57:00,70.3,70.3,28.73,SSW,205,0.0,0.0,100,0.03,CLR,CLR,0.26,WeatherDisplay:10.37,2013-07-04 11:57:00,
2013-07-04 08:02:00,71.0,71.0,28.73,SSW,205,0.0,0.0,100,0.03,CLR,CLR,0.26,WeatherDisplay:10.37,2013-07-04 12:02:00,
2013-07-04 08:07:00,70.9,70.9,28.73,SSW,205,2.3,2.3,100,0.03,CLR,CLR,0.26,WeatherDisplay:10.37,2013-07-04 12:07:00,
2013-07-04 08:12:00,71.3,71.3,28.73,SSW,201,5.8,5.8,100,0.03,CLR,CLR,0.26,WeatherDisplay:10.37,2013-07-04 12:12:00,
2013-07-04 08:17:00,71.3,71.3,28.73,SSW,201,1.2,1.2,100,0.01,CLR,CLR,0.26,WeatherDisplay:10.37,2013-07-04 12:17:00,
2013-07-04 08:22:00,71.2,71.2,28.72,SSW,201,0.0,0.0,100,0.00,CLR,CLR,0.26,WeatherDisplay:10.37,2013-07-04 12:22:00,
2013-07-04 08:27:00,71.7,71.7,28.72,SSW,201,0.0,0.0,100,0.00,CLR,CLR,0.26,WeatherDisplay:10.37,2013-07-04 12:27:00,
2013-07-04 08:33:00,72.3,72.3,28.74,SSW,201,0.0,0.0,100,0.00,CLR,CLR,0.26,WeatherDisplay:10.37,2013-07-04 12:33:00,
2013-07-04 08:38:00,72.4,72.4,28.74,SSW,201,0.0,0.0,100,0.00,CLR,CLR,0.26,WeatherDisplay:10.37,2013-07-04 12:38:00,
2013-07-04 08:43:00,72.5,72.5,28.75,SSW,201,0.0,0.0,100,0.00,CLR,CLR,0.26,WeatherDisplay:10.37,2013-07-04 12:43:00,
2013-07-04 08:48:00,72.4,72.4,28.72,SSW,201,0.0,0.0,100,0.00,CLR,CLR,0.26,WeatherDisplay:10.37,2013-07-04 12:48:00,
2013-07-04 08:53:00,72.4,72.4,28.74,SSE,166,1.2,0.0,100,0.00,CLR,CLR,0.26,WeatherDisplay:10.37,2013-07-04 12:53:00,
2013-07-04 08:59:00,72.5,72.5,28.74,SSE,166,2.3,2.3,100,0.00,CLR,CLR,0.26,WeatherDisplay:10.37,2013-07-04 12:59:00,
2013-07-04 09:04:00,72.5,72.5,28.74,SSE,167,3.5,3.5,100,0.00,CLR,CLR,0.26,WeatherDisplay:10.37,2013-07-04 13:04:00,
2013-07-04 09:09:00,72.4,72.4,28.74,SE,135,1.2,1.2,100,0.00,CLR,CLR,0.26,WeatherDisplay:10.37,2013-07-04 13:09:00,
2013-07-04 09:14:00,72.4,72.4,28.75,SE,126,1.2,1.2,100,0.00,CLR,CLR,0.26,WeatherDisplay:10.37,2013-07-04 13:14:00,
2013-07-04 09:19:00,72.3,72.3,28.73,SE,127,3.5,3.5,100,0.00,CLR,CLR,0.26,WeatherDisplay:10.37,2013-07-04 13:19:00,
2013-07-04 09:24:00,72.4,72.4,28.74,SSE,150,1.2,1.2,100,0.00,CLR,CLR,0.26,WeatherDisplay:10.37,2013-07-04 13:24:00,
2013-07-04 09:29:00,72.7,72.7,28.77,SSE,151,3.5,3.5,100,0.00,CLR,CLR,0.26,WeatherDisplay:10.37,2013-07-04 13:29:00,
2013-07-04 09:34:00,72.8,72.8,28.78,SSE,152,1.2,0.0,100,0.00,CLR,CLR,0.26,WeatherDisplay:10.37,2013-07-04 13:34:00,
2013-07-04 09:39:00,72.9,72.9,28.76,SSE,152,2.3,2.3,100,0.00,CLR,CLR,0.26,WeatherDisplay:10.37,2013-07-04 13:39:00,
2013-07-04 09:44:00,73.0,73.0,28.74,SSE,152,1.2,1.2,100,0.00,CLR,CLR,0.26,WeatherDisplay:10.37,2013-07-04 13:44:00,
2013-07-04 09:49:00,73.4,73.4,28.76,ESE,114,2.3,2.3,100,0.00,CLR,CLR,0.26,WeatherDisplay:10.37,2013-07-04 13:49:00,
2013-07-04 09:55:00,73.6,73.6,28.77,ESE,107,3.5,3.5,100,0.00,CLR,CLR,0.26,WeatherDisplay:10.37,2013-07-04 13:55:00,
2013-07-04 10:00:00,73.3,73.3,28.74,NNW,341,4.6,4.6,100,0.01,RA,RA,0.27,WeatherDisplay:10.37,2013-07-04 14:00:00,
2013-07-04 10:05:00,73.0,73.0,28.75,South,175,0.0,0.0,100,0.03,RA,RA,0.29,WeatherDisplay:10.37,2013-07-04 14:05:00,
2013-07-04 10:10:00,73.0,73.0,28.73,South,176,5.8,5.8,100,0.04,RA,RA,0.30,WeatherDisplay:10.37,2013-07-04 14:10:00,
2013-07-04 10:15:00,73.1,73.1,28.74,South,174,3.5,3.5,100,0.05,RA,RA,0.31,WeatherDisplay:10.37,2013-07-04 14:15:00,
2013-07-04 10:20:00,72.8,72.8,28.74,South,169,8.1,8.1,100,0.05,RA,RA,0.31,WeatherDisplay:10.37,2013-07-04 14:20:00,
2013-07-04 10:25:00,72.5,72.5,28.74,South,188,10.4,10.4,100,0.19,RA,RA,0.46,WeatherDisplay:10.37,2013-07-04 14:25:00,
2013-07-04 10:31:00,72.0,72.0,28.73,South,183,3.5,3.5,100,0.27,RA,RA,0.53,WeatherDisplay:10.37,2013-07-04 14:31:00,
2013-07-04 10:36:00,72.0,72.0,28.74,South,182,5.8,5.8,100,0.30,RA,RA,0.56,WeatherDisplay:10.37,2013-07-04 14:36:00,
2013-07-04 10:41:00,71.8,71.8,28.75,South,183,3.5,3.6,100,0.31,RA,RA,0.58,WeatherDisplay:10.37,2013-07-04 14:41:00,
2013-07-04 10:46:00,71.9,71.9,28.75,SSE,157,9.2,9.2,100,0.32,RA,RA,0.58,WeatherDisplay:10.37,2013-07-04 14:46:00,
2013-07-04 10:47:00,71.9,71.9,28.75,SSE,158,9.2,9.2,100,0.32,RA,RA,0.58,WeatherDisplay:10.37,2013-07-04 14:47:00,
2013-07-04 10:52:00,71.7,71.7,28.76,South,180,8.1,8.1,100,0.33,RA,RA,0.59,WeatherDisplay:10.37,2013-07-04 14:52:00,
2013-07-04 10:57:00,71.5,71.5,28.75,South,186,11.5,11.5,100,0.33,,,0.59,WeatherDisplay:10.37,2013-07-04 14:57:00,
2013-07-04 11:02:00,71.9,71.9,28.76,SSW,194,6.9,6.9,100,0.31,CLR,CLR,0.59,WeatherDisplay:10.37,2013-07-04 15:02:00,
2013-07-04 11:08:00,73.6,73.6,28.75,SSW,201,9.2,9.2,100,0.30,CLR,CLR,0.59,WeatherDisplay:10.37,2013-07-04 15:08:00,
2013-07-04 11:13:00,74.4,74.4,28.75,South,189,11.5,11.5,100,0.28,CLR,CLR,0.59,WeatherDisplay:10.37,2013-07-04 15:13:00,
2013-07-04 11:18:00,75.1,74.2,28.77,SSE,162,10.4,10.4,97,0.28,CLR,CLR,0.59,WeatherDisplay:10.37,2013-07-04 15:18:00,
2013-07-04 11:23:00,75.7,72.6,28.76,South,186,11.5,11.5,90,0.23,CLR,CLR,0.59,WeatherDisplay:10.37,2013-07-04 15:23:00,
2013-07-04 11:28:00,75.7,72.9,28.77,SSE,168,8.1,8.1,91,0.07,CLR,CLR,0.59,WeatherDisplay:10.37,2013-07-04 15:28:00,
2013-07-04 11:34:00,75.9,71.8,28.78,South,183,9.2,9.2,87,0.03,CLR,CLR,0.59,WeatherDisplay:10.37,2013-07-04 15:34:00,
2013-07-04 11:39:00,76.4,68.3,28.78,SSW,205,7.0,7.0,76,0.03,CLR,CLR,0.59,WeatherDisplay:10.37,2013-07-04 15:39:00,
2013-07-04 11:44:00,76.5,69.5,28.78,South,170,6.9,6.9,79,0.01,CLR,CLR,0.59,WeatherDisplay:10.37,2013-07-04 15:44:00,
2013-07-04 11:49:00,76.7,68.9,28.76,SSW,200,6.9,6.9,77,0.00,CLR,CLR,0.59,WeatherDisplay:10.37,2013-07-04 15:49:00,
2013-07-04 11:54:00,76.5,68.4,28.77,South,175,4.6,4.6,76,0.00,CLR,CLR,0.59,WeatherDisplay:10.37,2013-07-04 15:54:00,
2013-07-04 12:00:00,76.6,68.8,28.75,SSE,164,4.0,4.0,77,0.00,CLR,CLR,0.59,WeatherDisplay:10.37,2013-07-04 16:00:00,
2013-07-04 12:05:00,76.9,69.9,28.77,South,172,4.6,4.6,79,0.00,CLR,CLR,0.59,WeatherDisplay:10.37,2013-07-04 16:05:00,
2013-07-04 12:10:00,77.4,70.4,28.77,South,191,4.6,4.6,79,0.00,CLR,CLR,0.59,WeatherDisplay:10.37,2013-07-04 16:10:00,
2013-07-04 12:15:00,77.4,70.7,28.77,SSE,158,9.2,9.2,80,0.00,CLR,CLR,0.59,WeatherDisplay:10.37,2013-07-04 16:15:00,
2013-07-04 12:20:00,77.4,70.4,28.75,South,176,3.5,3.5,79,0.00,CLR,CLR,0.59,WeatherDisplay:10.37,2013-07-04 16:20:00,
2013-07-04 12:25:00,77.7,71.4,28.76,SSW,203,6.9,6.9,81,0.00,CLR,CLR,0.59,WeatherDisplay:10.37,2013-07-04 16:25:00,
2013-07-04 12:30:00,77.7,69.9,28.77,SSE,168,12.7,12.7,77,0.00,CLR,CLR,0.59,WeatherDisplay:10.37,2013-07-04 16:30:00,
2013-07-04 12:36:00,77.8,69.2,28.75,SSW,209,3.5,3.5,75,0.00,CLR,CLR,0.59,WeatherDisplay:10.37,2013-07-04 16:36:00,
2013-07-04 12:41:00,78.0,71.7,28.75,South,185,9.2,9.2,81,0.00,CLR,CLR,0.59,WeatherDisplay:10.37,2013-07-04 16:41:00,
2013-07-04 12:46:00,78.2,73.7,28.75,South,175,8.1,8.1,86,0.00,CLR,CLR,0.59,WeatherDisplay:10.37,2013-07-04 16:46:00,
2013-07-04 12:51:00,78.3,74.8,28.75,SSW,197,11.5,11.5,89,0.00,CLR,CLR,0.59,WeatherDisplay:10.37,2013-07-04 16:51:00,
2013-07-04 12:56:00,78.8,76.3,28.76,SSE,152,8.1,8.1,92,0.00,CLR,CLR,0.59,WeatherDisplay:10.37,2013-07-04 16:56:00,
2013-07-04 13:01:00,78.7,76.5,28.77,SSW,213,8.1,8.1,93,0.00,CLR,CLR,0.59,WeatherDisplay:10.37,2013-07-04 17:01:00,
2013-07-04 13:06:00,78.9,76.0,28.75,SSW,200,9.2,9.2,91,0.00,CLR,CLR,0.59,WeatherDisplay:10.37,2013-07-04 17:06:00,
2013-07-04 13:11:00,79.4,77.2,28.78,SSW,212,8.1,8.1,93,0.00,CLR,CLR,0.59,WeatherDisplay:10.37,2013-07-04 17:11:00,
2013-07-04 13:17:00,79.8,77.3,28.76,South,170,3.5,3.5,92,0.00,CLR,CLR,0.59,WeatherDisplay:10.37,2013-07-04 17:17:00,
2013-07-04 13:22:00,80.0,77.1,28.76,South,180,3.5,3.5,91,0.00,CLR,CLR,0.59,WeatherDisplay:10.37,2013-07-04 17:22:00,
2013-07-04 13:27:00,80.1,77.2,28.75,SSE,150,3.5,3.5,91,0.00,CLR,CLR,0.59,WeatherDisplay:10.37,2013-07-04 17:27:00,
2013-07-04 13:32:00,80.2,77.3,28.81,SSE,155,3.5,3.5,91,0.00,CLR,CLR,0.59,WeatherDisplay:10.37,2013-07-04 17:32:00,
2013-07-04 13:37:00,79.5,76.6,28.81,ESE,118,3.5,3.5,91,0.00,CLR,CLR,0.59,WeatherDisplay:10.37,2013-07-04 17:37:00,
2013-07-04 13:42:00,79.2,77.0,28.81,SSW,192,3.5,3.5,93,0.00,CLR,CLR,0.59,WeatherDisplay:10.37,2013-07-04 17:42:00,
2013-07-04 13:48:00,79.2,77.0,28.81,SSE,164,3.5,3.5,93,0.00,CLR,CLR,0.59,WeatherDisplay:10.37,2013-07-04 17:48:00,
2013-07-04 13:53:00,79.6,78.0,28.82,SSE,163,3.5,3.5,95,0.00,CLR,CLR,0.59,WeatherDisplay:10.37,2013-07-04 17:53:00,
2013-07-04 13:58:00,79.4,77.5,28.85,SSE,162,2.3,2.3,94,0.00,CLR,CLR,0.59,WeatherDisplay:10.37,2013-07-04 17:58:00,
2013-07-04 14:03:00,79.2,77.3,28.84,SW,217,3.5,3.5,94,0.00,CLR,CLR,0.59,WeatherDisplay:10.37,2013-07-04 18:03:00,
2013-07-04 14:08:00,79.3,76.8,28.78,ENE,76,3.5,3.5,92,0.00,CLR,CLR,0.59,WeatherDisplay:10.37,2013-07-04 18:08:00,
2013-07-04 14:13:00,79.4,77.2,28.83,SW,223,3.5,3.5,93,0.00,CLR,CLR,0.59,WeatherDisplay:10.37,2013-07-04 18:13:00,
2013-07-04 14:18:00,79.4,76.9,28.85,NE,49,3.5,3.5,92,0.00,CLR,CLR,0.59,WeatherDisplay:10.37,2013-07-04 18:18:00,
2013-07-04 14:24:00,79.5,76.3,28.80,SSW,200,6.9,6.9,90,0.00,CLR,CLR,0.59,WeatherDisplay:10.37,2013-07-04 18:24:00,
2013-07-04 14:29:00,79.4,76.5,28.84,SSE,159,5.8,5.8,91,0.00,CLR,CLR,0.59,WeatherDisplay:10.37,2013-07-04 18:29:00,
2013-07-04 14:34:00,79.7,77.5,28.90,South,173,3.5,3.5,93,0.00,CLR,CLR,0.59,WeatherDisplay:10.37,2013-07-04 18:34:00,
2013-07-04 14:39:00,79.6,76.7,28.90,SSE,153,2.3,2.3,91,0.00,CLR,CLR,0.59,WeatherDisplay:10.37,2013-07-04 18:39:00,
2013-07-04 14:44:00,79.6,76.7,28.84,SSE,151,3.5,3.5,91,0.00,CLR,CLR,0.59,WeatherDisplay:10.37,2013-07-04 18:44:00,
2013-07-04 14:50:00,79.8,76.6,28.78,South,176,4.6,4.6,90,0.00,CLR,CLR,0.59,WeatherDisplay:10.37,2013-07-04 18:50:00,
2013-07-04 14:55:00,79.8,76.6,28.81,SSE,162,2.3,2.3,90,0.00,CLR,CLR,0.59,WeatherDisplay:10.37,2013-07-04 18:55:00,
2013-07-04 15:00:00,79.6,76.4,28.81,ESE,106,3.0,3.0,90,0.00,CLR,CLR,0.59,WeatherDisplay:10.37,2013-07-04 19:00:00,
2013-07-04 15:05:00,79.9,77.7,28.80,SSE,147,3.5,3.5,93,0.00,CLR,CLR,0.59,WeatherDisplay:10.37,2013-07-04 19:05:00,
2013-07-04 15:10:00,80.1,76.9,28.79,SSW,212,8.1,8.1,90,0.00,CLR,CLR,0.59,WeatherDisplay:10.37,2013-07-04 19:10:00,
2013-07-04 15:16:00,79.9,76.4,28.78,ESE,106,4.0,4.0,89,0.00,CLR,CLR,0.59,WeatherDisplay:10.37,2013-07-04 19:16:00,
2013-07-04 15:21:00,79.9,75.7,28.80,ESE,111,4.6,4.6,87,0.00,CLR,CLR,0.59,WeatherDisplay:10.37,2013-07-04 19:21:00,
2013-07-04 15:26:00,80.3,76.8,28.78,South,187,4.6,4.6,89,0.00,CLR,CLR,0.59,WeatherDisplay:10.37,2013-07-04 19:26:00,
2013-07-04 15:32:00,80.7,76.5,28.78,North,8,1.2,1.2,87,0.00,CLR,CLR,0.59,WeatherDisplay:10.37,2013-07-04 19:32:00,
2013-07-04 15:38:00,81.3,75.6,28.75,SE,129,11.5,11.5,83,0.00,CLR,CLR,0.59,WeatherDisplay:10.37,2013-07-04 19:38:00,
2013-07-04 15:43:00,81.7,76.7,28.76,South,179,6.9,6.9,85,0.00,CLR,CLR,0.59,WeatherDisplay:10.37,2013-07-04 19:43:00,
2013-07-04 15:48:00,81.6,75.9,28.74,NNE,33,3.5,3.5,83,0.00,CLR,CLR,0.59,WeatherDisplay:10.37,2013-07-04 19:48:00,
2013-07-04 15:53:00,81.5,76.2,28.79,SE,126,5.8,5.8,84,0.00,CLR,CLR,0.59,WeatherDisplay:10.37,2013-07-04 19:53:00,
2013-07-04 15:59:00,81.5,76.2,28.77,ESE,111,4.6,4.6,84,0.00,CLR,CLR,0.59,WeatherDisplay:10.37,2013-07-04 19:59:00,
2013-07-04 16:04:00,81.4,75.7,28.74,East,99,3.5,3.5,83,0.00,CLR,CLR,0.59,WeatherDisplay:10.37,2013-07-04 20:04:00,
2013-07-04 16:09:00,80.9,75.2,28.81,SW,214,3.0,3.0,83,0.00,CLR,CLR,0.59,WeatherDisplay:10.37,2013-07-04 20:09:00,
2013-07-04 16:14:00,80.5,75.6,28.72,SSW,212,2.3,2.3,85,0.00,CLR,CLR,0.59,WeatherDisplay:10.37,2013-07-04 20:14:00,
2013-07-04 16:19:00,80.6,75.3,28.74,East,95,3.5,3.5,84,0.00,CLR,CLR,0.59,WeatherDisplay:10.37,2013-07-04 20:19:00,
2013-07-04 16:25:00,80.0,75.1,28.80,North,354,5.8,5.8,85,0.00,CLR,CLR,0.59,WeatherDisplay:10.37,2013-07-04 20:25:00,
2013-07-04 16:30:00,79.4,74.8,28.74,East,101,4.0,4.0,86,0.00,CLR,CLR,0.59,WeatherDisplay:10.37,2013-07-04 20:30:00,
2013-07-04 16:35:00,78.8,75.3,28.77,North,0,3.5,3.5,89,0.00,CLR,CLR,0.59,WeatherDisplay:10.37,2013-07-04 20:35:00,
2013-07-04 16:40:00,78.2,74.7,28.77,North,0,3.5,3.5,89,0.00,CLR,CLR,0.59,WeatherDisplay:10.37,2013-07-04 20:40:00,
2013-07-04 16:46:00,77.6,73.4,28.79,North,10,5.0,5.0,87,0.00,CLR,CLR,0.59,WeatherDisplay:10.37,2013-07-04 20:46:00,
2013-07-04 16:51:00,77.1,72.9,28.77,North,0,3.5,3.5,87,0.00,CLR,CLR,0.59,WeatherDisplay:10.37,2013-07-04 20:51:00,
2013-07-04 16:56:00,76.9,74.1,28.77,North,0,5.8,5.8,91,0.00,CLR,CLR,0.59,WeatherDisplay:10.37,2013-07-04 20:56:00,
2013-07-04 17:01:00,76.9,74.4,28.77,NNE,13,4.0,4.0,92,0.00,CLR,CLR,0.59,WeatherDisplay:10.37,2013-07-04 21:01:00,
2013-07-04 17:06:00,77.2,75.0,28.77,NNE,12,3.5,3.5,93,0.00,CLR,CLR,0.59,WeatherDisplay:10.37,2013-07-04 21:06:00,
2013-07-04 17:11:00,77.7,75.8,28.82,NNE,15,3.5,3.5,94,0.00,CLR,CLR,0.59,WeatherDisplay:10.37,2013-07-04 21:11:00,
2013-07-04 17:16:00,78.0,75.5,28.85,ESE,115,3.5,3.5,92,0.00,CLR,CLR,0.59,WeatherDisplay:10.37,2013-07-04 21:16:00,
2013-07-04 17:21:00,78.1,75.9,28.84,SE,129,5.0,5.0,93,0.00,CLR,CLR,0.59,WeatherDisplay:10.37,2013-07-04 21:21:00,
2013-07-04 17:27:00,78.2,75.4,28.74,SE,130,2.3,2.3,91,0.00,CLR,CLR,0.59,WeatherDisplay:10.37,2013-07-04 21:27:00,
2013-07-04 17:32:00,78.3,75.5,28.74,SW,227,2.3,2.3,91,0.00,CLR,CLR,0.59,WeatherDisplay:10.37,2013-07-04 21:32:00,
2013-07-04 17:37:00,78.5,75.3,28.73,WNW,289,3.5,3.5,90,0.00,CLR,CLR,0.59,WeatherDisplay:10.37,2013-07-04 21:37:00,
2013-07-04 17:42:00,78.7,75.2,28.81,NE,45,3.5,3.5,89,0.00,CLR,CLR,0.59,WeatherDisplay:10.37,2013-07-04 21:42:00,
2013-07-04 17:48:00,78.7,75.2,28.76,NNW,336,3.5,3.5,89,0.00,CLR,CLR,0.59,WeatherDisplay:10.37,2013-07-04 21:48:00,
2013-07-04 17:53:00,78.7,74.8,28.78,NNE,18,3.5,3.5,88,0.00,CLR,CLR,0.59,WeatherDisplay:10.37,2013-07-04 21:53:00,
2013-07-04 17:58:00,78.7,74.8,28.75,ENE,58,5.0,5.0,88,0.00,CLR,CLR,0.59,WeatherDisplay:10.37,2013-07-04 21:58:00,
2013-07-04 18:03:00,78.8,75.6,28.66,East,93,3.5,3.5,90,0.00,CLR,CLR,0.59,WeatherDisplay:10.37,2013-07-04 22:03:00,
2013-07-04 18:08:00,78.8,75.3,28.65,ESE,111,3.5,3.5,89,0.00,CLR,CLR,0.59,WeatherDisplay:10.37,2013-07-04 22:08:00,
2013-07-04 18:13:00,78.8,75.3,28.65,South,175,8.1,8.1,89,0.00,CLR,CLR,0.59,WeatherDisplay:10.37,2013-07-04 22:13:00,
2013-07-04 18:18:00,78.8,75.3,28.65,SSE,156,2.3,2.3,89,0.00,CLR,CLR,0.59,WeatherDisplay:10.37,2013-07-04 22:18:00,
2013-07-04 18:24:00,79.0,75.8,28.66,NNW,336,2.3,2.3,90,0.00,CLR,CLR,0.59,WeatherDisplay:10.37,2013-07-04 22:24:00,
2013-07-04 18:29:00,78.7,74.8,28.66,SW,220,9.2,9.2,88,0.00,CLR,CLR,0.59,WeatherDisplay:10.37,2013-07-04 22:29:00,
2013-07-04 18:34:00,77.3,73.8,28.65,SSW,204,4.6,4.6,89,0.06,RA,RA,0.65,WeatherDisplay:10.37,2013-07-04 22:34:00,
2013-07-04 18:39:00,76.0,73.2,28.66,SSW,207,3.5,3.5,91,0.06,RA,RA,0.65,WeatherDisplay:10.37,2013-07-04 22:39:00,
2013-07-04 18:44:00,75.2,72.1,28.66,SSE,164,3.5,3.5,90,0.06,,,0.65,WeatherDisplay:10.37,2013-07-04 22:44:00,
2013-07-04 18:50:00,74.6,72.1,28.67,SSE,164,3.5,3.5,92,0.06,CLR,CLR,0.65,WeatherDisplay:10.37,2013-07-04 22:50:00,
2013-07-04 18:55:00,74.3,72.8,28.66,SSE,164,0.0,0.0,95,0.06,CLR,CLR,0.65,WeatherDisplay:10.37,2013-07-04 22:55:00,
2013-07-04 19:00:00,74.0,72.8,28.67,SSE,164,0.0,0.0,96,0.06,CLR,CLR,0.65,WeatherDisplay:10.37,2013-07-04 23:00:00,
2013-07-04 19:07:00,73.7,72.8,28.67,SSE,164,2.3,2.3,97,0.06,CLR,CLR,0.65,WeatherDisplay:10.37,2013-07-04 23:07:00,
2013-07-04 19:12:00,73.5,72.9,28.67,SSE,164,1.2,1.2,98,0.06,CLR,CLR,0.65,WeatherDisplay:10.37,2013-07-04 23:12:00,
2013-07-04 19:17:00,73.4,72.5,28.67,SSE,164,0.0,0.0,97,0.06,CLR,CLR,0.65,WeatherDisplay:10.37,2013-07-04 23:17:00,
2013-07-04 19:21:00,73.3,72.7,28.67,SSE,164,0.0,0.0,98,0.06,CLR,CLR,0.65,WeatherDisplay:10.37,2013-07-04 23:21:00,
2013-07-04 19:26:00,73.2,72.6,28.67,SSE,164,0.0,0.0,98,0.06,CLR,CLR,0.65,WeatherDisplay:10.37,2013-07-04 23:26:00,
2013-07-04 19:31:00,73.1,72.5,28.67,SSE,164,0.0,0.0,98,0.05,CLR,CLR,0.65,WeatherDisplay:10.37,2013-07-04 23:31:00,
2013-07-04 19:36:00,72.9,72.3,28.67,SSE,164,0.0,0.0,98,0.00,CLR,CLR,0.65,WeatherDisplay:10.37,2013-07-04 23:36:00,
2013-07-04 19:41:00,72.8,72.2,28.68,SSE,164,0.0,0.0,98,0.00,CLR,CLR,0.65,WeatherDisplay:10.37,2013-07-04 23:41:00,
2013-07-04 19:46:00,72.7,72.1,28.67,SSE,164,0.0,0.0,98,0.00,CLR,CLR,0.65,WeatherDisplay:10.37,2013-07-04 23:46:00,
2013-07-04 19:51:00,72.6,72.0,28.67,SSE,164,0.0,0.0,98,0.00,CLR,CLR,0.65,WeatherDisplay:10.37,2013-07-04 23:51:00,
2013-07-04 19:56:00,72.6,72.3,28.67,SSE,164,1.0,0.0,99,0.00,CLR,CLR,0.65,WeatherDisplay:10.37,2013-07-04 23:56:00,
2013-07-04 20:02:00,72.5,71.9,28.68,SSW,195,3.5,3.5,98,0.00,CLR,CLR,0.65,WeatherDisplay:10.37,2013-07-05 00:02:00,
2013-07-04 20:07:00,72.5,71.9,28.67,SSW,195,3.5,3.5,98,0.00,CLR,CLR,0.65,WeatherDisplay:10.37,2013-07-05 00:07:00,
2013-07-04 20:12:00,72.4,72.1,28.68,SSW,195,1.2,1.2,99,0.00,CLR,CLR,0.65,WeatherDisplay:10.37,2013-07-05 00:12:00,
2013-07-04 20:17:00,72.3,71.7,28.68,SSW,195,0.0,0.0,98,0.00,CLR,CLR,0.65,WeatherDisplay:10.37,2013-07-05 00:17:00,
2013-07-04 20:23:00,72.2,71.9,28.68,SSW,195,0.0,0.0,99,0.00,CLR,CLR,0.65,WeatherDisplay:10.37,2013-07-05 00:23:00,
2013-07-04 20:28:00,72.1,71.8,28.68,SSW,195,1.2,0.0,99,0.00,CLR,CLR,0.65,WeatherDisplay:10.37,2013-07-05 00:28:00,
2013-07-04 20:33:00,72.0,71.7,28.68,SSW,195,0.0,0.0,99,0.00,CLR,CLR,0.65,WeatherDisplay:10.37,2013-07-05 00:33:00,
2013-07-04 20:38:00,71.9,71.6,28.68,SSW,195,0.0,0.0,99,0.00,CLR,CLR,0.65,WeatherDisplay:10.37,2013-07-05 00:38:00,
2013-07-04 20:44:00,71.8,71.5,28.68,SSW,195,0.0,0.0,99,0.00,CLR,CLR,0.65,WeatherDisplay:10.37,2013-07-05 00:44:00,
2013-07-04 20:49:00,71.8,71.5,28.68,SSW,195,0.0,0.0,99,0.00,CLR,CLR,0.65,WeatherDisplay:10.37,2013-07-05 00:49:00,
2013-07-04 20:54:00,71.8,71.5,28.67,SSW,195,1.0,0.0,99,0.00,CLR,CLR,0.65,WeatherDisplay:10.37,2013-07-05 00:54:00,
2013-07-04 20:59:00,71.7,71.4,28.67,SSW,195,0.0,0.0,99,0.00,CLR,CLR,0.65,WeatherDisplay:10.37,2013-07-05 00:59:00,
2013-07-04 21:04:00,71.6,71.6,28.68,SSW,195,0.0,0.0,100,0.00,CLR,CLR,0.65,WeatherDisplay:10.37,2013-07-05 01:04:00,
2013-07-04 21:09:00,71.6,71.6,28.68,SSW,195,0.0,0.0,100,0.00,CLR,CLR,0.65,WeatherDisplay:10.37,2013-07-05 01:09:00,
2013-07-04 21:14:00,71.5,71.5,28.67,SSW,195,0.0,0.0,100,0.00,CLR,CLR,0.65,WeatherDisplay:10.37,2013-07-05 01:14:00,
2013-07-04 21:19:00,71.4,71.4,28.68,SSW,195,0.0,0.0,100,0.00,CLR,CLR,0.65,WeatherDisplay:10.37,2013-07-05 01:19:00,
2013-07-04 21:25:00,71.3,71.3,28.68,SSW,195,0.0,0.0,100,0.00,CLR,CLR,0.65,WeatherDisplay:10.37,2013-07-05 01:25:00,
2013-07-04 21:30:00,71.3,71.3,28.68,SSW,195,0.0,0.0,100,0.00,CLR,CLR,0.65,WeatherDisplay:10.37,2013-07-05 01:30:00,
2013-07-04 21:35:00,71.2,71.2,28.68,SSW,195,0.0,0.0,100,0.00,CLR,CLR,0.65,WeatherDisplay:10.37,2013-07-05 01:35:00,
2013-07-04 21:40:00,71.2,71.2,28.68,SSW,195,0.0,0.0,100,0.00,CLR,CLR,0.65,WeatherDisplay:10.37,2013-07-05 01:40:00,
2013-07-04 21:45:00,71.2,71.2,28.68,SSW,195,0.0,0.0,100,0.00,CLR,CLR,0.65,WeatherDisplay:10.37,2013-07-05 01:45:00,
2013-07-04 21:50:00,71.2,71.2,28.69,SSW,195,0.0,0.0,100,0.00,CLR,CLR,0.65,WeatherDisplay:10.37,2013-07-05 01:50:00,
2013-07-04 21:55:00,71.2,71.2,28.68,SSW,195,0.0,0.0,100,0.00,CLR,CLR,0.65,WeatherDisplay:10.37,2013-07-05 01:55:00,
2013-07-04 22:00:00,71.2,71.2,28.68,SSW,195,0.0,0.0,100,0.00,CLR,CLR,0.65,WeatherDisplay:10.37,2013-07-05 02:00:00,
2013-07-04 22:06:00,71.2,71.2,28.69,SSW,195,0.0,0.0,100,0.00,CLR,CLR,0.65,WeatherDisplay:10.37,2013-07-05 02:06:00,
2013-07-04 22:11:00,71.2,71.2,28.69,SSW,195,0.0,0.0,100,0.00,CLR,CLR,0.65,WeatherDisplay:10.37,2013-07-05 02:11:00,
2013-07-04 22:16:00,71.3,71.3,28.69,SSW,195,0.0,0.0,100,0.00,CLR,CLR,0.65,WeatherDisplay:10.37,2013-07-05 02:16:00,
2013-07-04 22:21:00,71.3,71.3,28.69,SSW,195,0.0,0.0,100,0.00,CLR,CLR,0.65,WeatherDisplay:10.37,2013-07-05 02:21:00,
2013-07-04 22:26:00,71.2,71.2,28.69,SSW,195,0.0,0.0,100,0.00,CLR,CLR,0.65,WeatherDisplay:10.37,2013-07-05 02:26:00,
2013-07-04 22:32:00,71.1,71.1,28.69,SSW,195,0.0,0.0,100,0.00,CLR,CLR,0.65,WeatherDisplay:10.37,2013-07-05 02:32:00,
2013-07-04 22:37:00,71.0,71.0,28.69,SSW,195,0.0,0.0,100,0.00,CLR,CLR,0.65,WeatherDisplay:10.37,2013-07-05 02:37:00,
2013-07-04 22:42:00,71.0,71.0,28.69,SSW,195,0.0,0.0,100,0.00,CLR,CLR,0.65,WeatherDisplay:10.37,2013-07-05 02:42:00,
2013-07-04 22:47:00,70.9,70.9,28.69,SSW,195,0.0,0.0,100,0.00,CLR,CLR,0.65,WeatherDisplay:10.37,2013-07-05 02:47:00,
2013-07-04 22:52:00,70.8,70.8,28.69,SSW,195,0.0,0.0,100,0.00,CLR,CLR,0.65,WeatherDisplay:10.37,2013-07-05 02:52:00,
2013-07-04 22:57:00,70.7,70.7,28.69,SSW,195,0.0,0.0,100,0.00,CLR,CLR,0.65,WeatherDisplay:10.37,2013-07-05 02:57:00,
2013-07-04 23:02:00,70.6,70.6,28.69,SSW,195,0.0,0.0,100,0.00,CLR,CLR,0.65,WeatherDisplay:10.37,2013-07-05 03:02:00,
2013-07-04 23:08:00,70.5,70.5,28.69,SSW,195,0.0,0.0,100,0.00,CLR,CLR,0.65,WeatherDisplay:10.37,2013-07-05 03:08:00,
2013-07-04 23:13:00,70.4,70.4,28.69,SSW,195,0.0,0.0,100,0.00,CLR,CLR,0.65,WeatherDisplay:10.37,2013-07-05 03:13:00,
2013-07-04 23:18:00,70.3,70.3,28.68,SSW,195,0.0,0.0,100,0.00,CLR,CLR,0.65,WeatherDisplay:10.37,2013-07-05 03:18:00,
2013-07-04 23:23:00,70.3,70.3,28.69,SSW,195,0.0,0.0,100,0.00,CLR,CLR,0.65,WeatherDisplay:10.37,2013-07-05 03:23:00,
2013-07-04 23:28:00,70.3,70.3,28.69,SSW,195,1.2,1.2,100,0.00,CLR,CLR,0.65,WeatherDisplay:10.37,2013-07-05 03:28:00,
2013-07-04 23:33:00,70.3,70.3,28.69,SSW,195,3.5,3.5,100,0.00,CLR,CLR,0.65,WeatherDisplay:10.37,2013-07-05 03:33:00,
2013-07-04 23:38:00,70.2,70.2,28.68,South,191,1.2,1.2,100,0.00,CLR,CLR,0.65,WeatherDisplay:10.37,2013-07-05 03:38:00,
2013-07-04 23:44:00,70.4,70.4,28.69,SSW,193,3.5,3.5,100,0.00,CLR,CLR,0.65,WeatherDisplay:10.37,2013-07-05 03:44:00,
2013-07-04 23:49:00,70.4,70.4,28.69,South,176,3.5,3.5,100,0.00,CLR,CLR,0.65,WeatherDisplay:10.37,2013-07-05 03:49:00,
2013-07-04 23:54:00,70.4,70.4,28.69,South,177,0.0,0.0,100,0.00,CLR,CLR,0.65,WeatherDisplay:10.37,2013-07-05 03:54:00,
2013-07-04 23:59:00,70.4,70.4,28.69,South,177,0.0,0.0,100,0.00,CLR,CLR,0.65,WeatherDisplay:10.37,2013-07-05 03:59:00,